Time;durP1;ratioP1;P1;durP2;ratioP2;P2;SDS_P1;SDS_P2;PMS_P1;PMS_P2;Temp;Humidity;BMP_temperature;BMP_pressure;BME280_temperature;BME280_humidity;BME280_pressure;Samples;Min_cycle;Max_cycle;Signal;HPM_P1;HPM_P2
2022/01/13 00:01:30;;;;;;;;;;;1.10;94.80;;;;;;5065090;28;19936;-77
2022/01/13 00:03:57;;;;;;;;;;;1.10;94.90;;;;;;5062731;28;20019;-78
2022/01/13 00:06:23;;;;;;;;;;;1.00;94.80;;;;;;5062475;28;19932;-78
2022/01/13 00:08:50;;;;;;;;;;;1.00;94.80;;;;;;5061324;28;20623;-78
2022/01/13 00:11:16;;;;;;;;;;;1.00;94.80;;;;;;5062689;28;20618;-78
2022/01/13 00:13:50;;;;;;;;;;;1.00;94.80;;;;;;5064162;28;19936;-78
2022/01/13 00:16:37;;;;;;;;;;;1.00;94.80;;;;;;5061613;28;20015;-78
2022/01/13 00:19:17;;;;;;;;;;;1.00;94.80;;;;;;5061192;28;19929;-78
2022/01/13 00:21:50;;;;;;;;;;;1.00;94.80;;;;;;5069084;28;19928;-78
2022/01/13 00:24:16;;;;;;;;;;;1.00;94.80;;;;;;5064443;28;20803;-79
2022/01/13 00:26:43;;;;;;;;;;;1.00;94.80;;;;;;5062172;28;20300;-78
2022/01/13 00:29:10;;;;;;;;;;;1.00;94.80;;;;;;5067261;28;19933;-78
2022/01/13 00:31:41;;;;;;;;;;;0.90;94.80;;;;;;5057655;28;19932;-78
2022/01/13 00:34:08;;;;;;;;;;;0.90;94.80;;;;;;5061128;28;19929;-77
2022/01/13 00:36:35;;;;;;;;;;;0.90;94.80;;;;;;5062578;28;19982;-79
2022/01/13 00:39:03;;;;;;;;;;;0.90;94.80;;;;;;5061338;28;19936;-78
2022/01/13 00:41:29;;;;;;;;;;;0.90;94.80;;;;;;5061792;28;19939;-79
2022/01/13 00:43:56;;;;;;;;;;;0.90;94.80;;;;;;5061770;28;19963;-78
2022/01/13 00:46:25;;;;;;;;;;;0.90;94.80;;;;;;5061938;28;19928;-77
2022/01/13 00:48:54;;;;;;;;;;;0.90;94.80;;;;;;5062198;28;19929;-77
2022/01/13 00:51:21;;;;;;;;;;;0.90;94.80;;;;;;5060718;28;19978;-77
2022/01/13 00:53:48;;;;;;;;;;;0.90;94.90;;;;;;5061388;28;19932;-78
2022/01/13 00:56:14;;;;;;;;;;;0.90;94.90;;;;;;5063925;28;19928;-77
2022/01/13 00:58:41;;;;;;;;;;;0.90;94.90;;;;;;5062732;28;19928;-78
2022/01/13 01:01:08;;;;;;;;;;;0.90;94.90;;;;;;5058188;28;19929;-77
2022/01/13 01:03:35;;;;;;;;;;;0.90;94.90;;;;;;5063969;28;20042;-78
2022/01/13 01:06:04;;;;;;;;;;;0.90;94.90;;;;;;5063056;28;19940;-78
2022/01/13 01:08:31;;;;;;;;;;;0.80;94.90;;;;;;5062479;28;19928;-77
2022/01/13 01:11:00;;;;;;;;;;;0.80;94.90;;;;;;5061194;28;20447;-77
2022/01/13 01:13:29;;;;;;;;;;;0.80;94.90;;;;;;5058809;28;19928;-77
2022/01/13 01:15:57;;;;;;;;;;;0.80;94.90;;;;;;5061343;28;19977;-77
2022/01/13 01:18:31;;;;;;;;;;;0.80;94.90;;;;;;5063009;28;20018;-78
2022/01/13 01:21:31;;;;;;;;;;;0.80;94.90;;;;;;5062048;28;19936;-78
2022/01/13 01:26:55;;;;;;;;;;;0.80;95.00;;;;;;5036879;28;20086;-77
2022/01/13 01:29:26;;;;;;;;;;;0.80;95.00;;;;;;5069998;28;19936;-78
2022/01/13 01:31:55;;;;;;;;;;;0.80;95.00;;;;;;5066812;28;19928;-77
2022/01/13 01:34:37;;;;;;;;;;;0.80;95.00;;;;;;5065307;28;19928;-77
2022/01/13 01:37:12;;;;;;;;;;;0.80;95.00;;;;;;5065670;28;19935;-78
2022/01/13 01:39:40;;;;;;;;;;;0.80;95.00;;;;;;5066625;28;20016;-76
2022/01/13 01:42:06;;;;;;;;;;;0.80;95.00;;;;;;5065066;28;19962;-77
2022/01/13 01:44:36;;;;;;;;;;;0.80;95.00;;;;;;5067284;28;19929;-78
2022/01/13 01:47:04;;;;;;;;;;;0.80;95.00;;;;;;5068480;28;19928;-78
2022/01/13 01:49:38;;;;;;;;;;;0.80;95.00;;;;;;5066088;28;19935;-77
2022/01/13 01:52:05;;;;;;;;;;;0.80;95.00;;;;;;5066100;28;19964;-77
2022/01/13 01:54:32;;;;;;;;;;;0.70;95.00;;;;;;5066644;28;19929;-78
2022/01/13 01:57:00;;;;;;;;;;;0.70;95.00;;;;;;5069344;28;19929;-77
2022/01/13 01:59:30;;;;;;;;;;;0.70;95.00;;;;;;5067417;28;19936;-78
2022/01/13 02:01:56;;;;;;;;;;;0.70;95.00;;;;;;5063349;28;20024;-78
2022/01/13 02:04:25;;;;;;;;;;;0.70;95.00;;;;;;5067734;28;20578;-78
2022/01/13 02:06:51;;;;;;;;;;;0.70;95.00;;;;;;5068011;28;20026;-78
2022/01/13 02:09:19;;;;;;;;;;;0.70;95.00;;;;;;5066618;28;19939;-78
2022/01/13 02:11:49;;;;;;;;;;;0.70;95.00;;;;;;5063638;28;19935;-78
2022/01/13 02:14:32;;;;;;;;;;;0.70;95.00;;;;;;5065470;28;19928;-77
2022/01/13 02:17:02;;;;;;;;;;;0.70;95.00;;;;;;5063449;28;20043;-78
2022/01/13 02:19:30;;;;;;;;;;;0.70;95.00;;;;;;5066754;28;20479;-78
2022/01/13 02:21:59;;;;;;;;;;;0.60;95.00;;;;;;5067024;28;19936;-78
2022/01/13 02:24:25;;;;;;;;;;;0.60;95.00;;;;;;5068125;28;20409;-78
2022/01/13 02:26:52;;;;;;;;;;;0.60;95.00;;;;;;5067236;28;19932;-78
2022/01/13 02:29:19;;;;;;;;;;;0.60;95.00;;;;;;5069458;28;19928;-77
2022/01/13 02:31:45;;;;;;;;;;;0.60;95.00;;;;;;5067250;28;19928;-77
2022/01/13 02:34:12;;;;;;;;;;;0.60;95.00;;;;;;5064693;28;19929;-77
2022/01/13 02:36:41;;;;;;;;;;;0.60;95.00;;;;;;5067144;28;19935;-78
2022/01/13 02:39:09;;;;;;;;;;;0.60;95.00;;;;;;5062651;28;19935;-78
2022/01/13 02:41:35;;;;;;;;;;;0.50;95.00;;;;;;5061509;28;19935;-77
2022/01/13 02:44:02;;;;;;;;;;;0.50;95.00;;;;;;5065207;28;19935;-76
2022/01/13 02:46:32;;;;;;;;;;;0.50;95.10;;;;;;5065693;28;20415;-77
2022/01/13 02:48:59;;;;;;;;;;;0.50;95.00;;;;;;5065258;28;19967;-77
2022/01/13 02:51:26;;;;;;;;;;;0.50;95.10;;;;;;5065675;28;19970;-76
2022/01/13 02:53:53;;;;;;;;;;;0.40;95.00;;;;;;5063077;28;19929;-77
2022/01/13 02:56:21;;;;;;;;;;;0.40;95.00;;;;;;5067691;28;19929;-78
2022/01/13 02:58:48;;;;;;;;;;;0.40;95.00;;;;;;5065457;28;19947;-78
2022/01/13 03:01:15;;;;;;;;;;;0.40;95.00;;;;;;5060178;28;19933;-77
2022/01/13 03:03:42;;;;;;;;;;;0.50;95.00;;;;;;5064448;28;20059;-78
2022/01/13 03:06:09;;;;;;;;;;;0.40;95.00;;;;;;5064004;28;19935;-77
2022/01/13 03:08:36;;;;;;;;;;;0.40;95.00;;;;;;5059938;28;20738;-78
2022/01/13 03:11:03;;;;;;;;;;;0.40;95.10;;;;;;5060818;28;19940;-77
2022/01/13 03:13:31;;;;;;;;;;;0.40;95.10;;;;;;5064058;28;19928;-77
2022/01/13 03:15:57;;;;;;;;;;;0.40;95.10;;;;;;5070179;28;19929;-77
2022/01/13 03:18:24;;;;;;;;;;;0.40;95.10;;;;;;5067157;28;19932;-78
2022/01/13 03:20:50;;;;;;;;;;;0.40;95.10;;;;;;5071294;28;19928;-78
2022/01/13 03:23:19;;;;;;;;;;;0.30;95.10;;;;;;5067526;28;19928;-78
2022/01/13 03:25:46;;;;;;;;;;;0.30;95.10;;;;;;5064483;28;19943;-78
2022/01/13 03:28:16;;;;;;;;;;;0.40;95.10;;;;;;5066101;28;19990;-78
2022/01/13 03:30:45;;;;;;;;;;;0.30;95.10;;;;;;5065917;28;20015;-77
2022/01/13 03:33:12;;;;;;;;;;;0.30;95.10;;;;;;5066827;28;19943;-77
2022/01/13 03:35:39;;;;;;;;;;;0.30;95.10;;;;;;5070912;28;19928;-78
2022/01/13 03:38:06;;;;;;;;;;;0.30;95.10;;;;;;5066096;28;19935;-78
2022/01/13 03:40:33;;;;;;;;;;;0.20;95.10;;;;;;5065638;28;19928;-78
2022/01/13 03:43:01;;;;;;;;;;;0.20;95.10;;;;;;5066635;28;20010;-77
2022/01/13 03:45:28;;;;;;;;;;;0.30;95.10;;;;;;5062276;28;19929;-78
2022/01/13 03:47:56;;;;;;;;;;;0.30;95.10;;;;;;5065969;28;19954;-78
2022/01/13 03:50:23;;;;;;;;;;;0.20;95.10;;;;;;5064411;28;19932;-78
2022/01/13 03:53:19;;;;;;;;;;;0.20;95.10;;;;;;5068744;28;19935;-79
2022/01/13 03:56:13;;;;;;;;;;;0.20;95.10;;;;;;5071592;28;19928;-78
2022/01/13 03:59:08;;;;;;;;;;;0.20;95.20;;;;;;5063187;28;19940;-78
2022/01/13 04:01:53;;;;;;;;;;;0.20;95.10;;;;;;5066206;28;19928;-78
2022/01/13 04:04:21;;;;;;;;;;;0.20;95.20;;;;;;5067011;28;19935;-77
2022/01/13 04:06:48;;;;;;;;;;;0.20;95.20;;;;;;5067312;28;19935;-77
2022/01/13 04:09:36;;;;;;;;;;;0.10;95.20;;;;;;5063291;28;19928;-77
2022/01/13 04:12:06;;;;;;;;;;;0.10;95.20;;;;;;5062515;28;19932;-78
2022/01/13 04:14:42;;;;;;;;;;;0.10;95.20;;;;;;5070623;28;20019;-77
2022/01/13 04:17:09;;;;;;;;;;;0.10;95.10;;;;;;5060277;28;19928;-79
2022/01/13 04:19:37;;;;;;;;;;;0.10;95.10;;;;;;5063595;28;19932;-78
2022/01/13 04:22:05;;;;;;;;;;;0.10;95.20;;;;;;5074835;28;19963;-79
2022/01/13 04:24:31;;;;;;;;;;;0.10;95.50;;;;;;5061659;28;19928;-78
2022/01/13 04:26:58;;;;;;;;;;;0.10;95.20;;;;;;5067040;28;19935;-78
2022/01/13 04:29:33;;;;;;;;;;;0.10;95.20;;;;;;5066481;28;19928;-78
2022/01/13 04:31:59;;;;;;;;;;;0.00;95.10;;;;;;5064268;28;19932;-78
2022/01/13 04:34:26;;;;;;;;;;;0.00;95.20;;;;;;5065346;28;20399;-77
2022/01/13 04:36:56;;;;;;;;;;;0.00;95.20;;;;;;5065470;28;19928;-78
2022/01/13 04:39:22;;;;;;;;;;;0.00;95.20;;;;;;5062327;28;19929;-78
2022/01/13 04:41:49;;;;;;;;;;;0.00;95.20;;;;;;5066596;28;19928;-77
2022/01/13 04:44:17;;;;;;;;;;;0.00;95.20;;;;;;5066626;28;19951;-77
2022/01/13 04:46:44;;;;;;;;;;;0.00;95.20;;;;;;5064926;28;19988;-78
2022/01/13 04:49:11;;;;;;;;;;;0.00;95.20;;;;;;5069602;28;19932;-78
2022/01/13 04:51:38;;;;;;;;;;;-0.10;95.20;;;;;;5068525;28;19932;-78
2022/01/13 04:54:06;;;;;;;;;;;-0.10;95.20;;;;;;5063043;28;19928;-78
2022/01/13 04:56:40;;;;;;;;;;;-0.10;95.20;;;;;;5066404;28;19928;-78
2022/01/13 04:59:07;;;;;;;;;;;-0.10;95.20;;;;;;5065377;28;19929;-78
2022/01/13 05:01:34;;;;;;;;;;;-0.10;95.20;;;;;;5062815;28;19936;-78
2022/01/13 05:04:01;;;;;;;;;;;-0.10;95.20;;;;;;5065403;28;19929;-78
2022/01/13 05:06:28;;;;;;;;;;;-0.10;95.20;;;;;;5065724;28;19935;-79
2022/01/13 05:08:54;;;;;;;;;;;-0.10;95.20;;;;;;5065826;28;19929;-78
2022/01/13 05:11:22;;;;;;;;;;;-0.10;95.20;;;;;;5064581;28;19928;-78
2022/01/13 05:13:49;;;;;;;;;;;-0.10;95.20;;;;;;5064235;28;19967;-78
2022/01/13 05:16:21;;;;;;;;;;;-0.10;95.20;;;;;;5061336;28;19928;-78
2022/01/13 05:18:52;;;;;;;;;;;-0.20;95.20;;;;;;5068689;28;19928;-78
2022/01/13 05:21:23;;;;;;;;;;;-0.20;95.20;;;;;;5061953;28;19939;-78
2022/01/13 05:23:52;;;;;;;;;;;-0.20;95.20;;;;;;5064549;28;19928;-79
2022/01/13 05:26:18;;;;;;;;;;;-0.20;95.20;;;;;;5065144;28;19932;-78
2022/01/13 05:28:46;;;;;;;;;;;-0.20;95.20;;;;;;5067227;28;20002;-78
2022/01/13 05:31:13;;;;;;;;;;;-0.20;95.20;;;;;;5061476;28;19933;-79
2022/01/13 05:33:39;;;;;;;;;;;-0.20;95.30;;;;;;5062345;28;19936;-79
2022/01/13 05:36:06;;;;;;;;;;;-0.20;95.30;;;;;;5062281;28;19974;-79
2022/01/13 05:38:33;;;;;;;;;;;-0.30;95.20;;;;;;5063233;28;19928;-78
2022/01/13 05:40:59;;;;;;;;;;;-0.30;95.20;;;;;;5061321;28;20281;-79
2022/01/13 05:43:26;;;;;;;;;;;-0.30;95.20;;;;;;5062655;28;20095;-79
2022/01/13 05:45:54;;;;;;;;;;;-0.30;95.20;;;;;;5060588;28;19955;-78
2022/01/13 05:48:21;;;;;;;;;;;-0.30;95.20;;;;;;5064424;28;19933;-79
2022/01/13 05:50:47;;;;;;;;;;;-0.30;95.20;;;;;;5064809;28;19959;-78
2022/01/13 05:53:14;;;;;;;;;;;-0.30;95.20;;;;;;5059416;28;20772;-78
2022/01/13 05:55:40;;;;;;;;;;;-0.30;95.20;;;;;;5060444;28;20411;-79
2022/01/13 05:58:07;;;;;;;;;;;-0.40;95.10;;;;;;5063763;28;20355;-78
2022/01/13 06:00:33;;;;;;;;;;;-0.30;95.20;;;;;;5064997;28;19928;-79
2022/01/13 06:03:02;;;;;;;;;;;-0.30;95.20;;;;;;5062943;28;20426;-79
2022/01/13 06:05:28;;;;;;;;;;;-0.40;95.20;;;;;;5064383;28;19928;-78
2022/01/13 06:07:55;;;;;;;;;;;-0.40;95.20;;;;;;5057756;28;19932;-78
2022/01/13 06:10:22;;;;;;;;;;;-0.40;95.20;;;;;;5060897;28;19933;-78
2022/01/13 06:12:49;;;;;;;;;;;-0.40;95.30;;;;;;5060804;28;19928;-78
2022/01/13 06:15:18;;;;;;;;;;;-0.40;95.30;;;;;;5067565;28;19936;-78
2022/01/13 06:17:45;;;;;;;;;;;-0.40;95.30;;;;;;5068101;28;19970;-78
2022/01/13 06:20:13;;;;;;;;;;;-0.40;95.30;;;;;;5067664;28;19940;-78
2022/01/13 06:22:41;;;;;;;;;;;-0.50;94.50;;;;;;5069501;28;19944;-78
2022/01/13 06:25:08;;;;;;;;;;;-0.60;95.10;;;;;;5072978;28;19928;-78
2022/01/13 06:27:35;;;;;;;;;;;-0.60;94.90;;;;;;5073459;28;19955;-79
2022/01/13 06:30:02;;;;;;;;;;;-0.60;95.10;;;;;;5073124;28;19935;-78
2022/01/13 06:32:28;;;;;;;;;;;-0.60;95.10;;;;;;5073610;28;19935;-78
2022/01/13 06:34:55;;;;;;;;;;;-0.60;95.20;;;;;;5075614;28;19935;-77
2022/01/13 06:37:23;;;;;;;;;;;-0.60;95.20;;;;;;5079245;28;19971;-77
2022/01/13 06:39:49;;;;;;;;;;;-0.60;95.20;;;;;;5083386;28;19928;-77
2022/01/13 06:42:17;;;;;;;;;;;-0.60;95.20;;;;;;5076134;28;20406;-77
2022/01/13 06:44:44;;;;;;;;;;;-0.60;95.20;;;;;;5073438;28;19932;-78
2022/01/13 06:47:10;;;;;;;;;;;-0.60;95.20;;;;;;5066378;28;19932;-78
2022/01/13 06:49:38;;;;;;;;;;;-0.60;95.20;;;;;;5060625;28;20471;-76
2022/01/13 06:52:05;;;;;;;;;;;-0.60;95.20;;;;;;5066409;28;19928;-79
2022/01/13 06:54:33;;;;;;;;;;;-0.60;95.20;;;;;;5065791;28;20167;-80
2022/01/13 06:56:59;;;;;;;;;;;-0.50;95.20;;;;;;5067356;28;20352;-81
2022/01/13 06:59:26;;;;;;;;;;;-0.60;95.20;;;;;;5068977;28;20311;-79
2022/01/13 07:01:52;;;;;;;;;;;-0.60;95.20;;;;;;5065047;28;20396;-81
2022/01/13 07:04:19;;;;;;;;;;;-0.60;95.20;;;;;;5069773;28;19951;-80
2022/01/13 07:06:46;;;;;;;;;;;-0.60;95.20;;;;;;5067407;28;20047;-79
2022/01/13 07:09:13;;;;;;;;;;;-0.60;95.20;;;;;;5068393;28;19928;-82
2022/01/13 07:11:41;;;;;;;;;;;-0.60;95.20;;;;;;5066293;28;19942;-79
2022/01/13 07:14:08;;;;;;;;;;;-0.60;95.30;;;;;;5068400;28;19928;-79
2022/01/13 07:16:35;;;;;;;;;;;-0.60;95.20;;;;;;5062710;28;20032;-81
2022/01/13 07:19:02;;;;;;;;;;;-0.60;95.20;;;;;;5070430;28;19936;-79
2022/01/13 07:21:28;;;;;;;;;;;-0.60;95.30;;;;;;5067557;28;19929;-78
2022/01/13 07:23:55;;;;;;;;;;;-0.60;95.30;;;;;;5065915;28;19936;-78
2022/01/13 07:26:22;;;;;;;;;;;-0.60;95.30;;;;;;5071400;28;20215;-77
2022/01/13 07:28:49;;;;;;;;;;;-0.70;95.20;;;;;;5070154;28;19932;-79
2022/01/13 07:31:17;;;;;;;;;;;-0.60;95.30;;;;;;5069465;28;19932;-79
2022/01/13 07:33:43;;;;;;;;;;;-0.60;95.30;;;;;;5068692;28;19970;-77
2022/01/13 07:36:10;;;;;;;;;;;-0.60;95.30;;;;;;5069503;28;19933;-78
2022/01/13 07:38:37;;;;;;;;;;;-0.70;95.30;;;;;;5066636;28;20891;-78
2022/01/13 07:41:03;;;;;;;;;;;-0.70;95.60;;;;;;5065154;28;20513;-78
2022/01/13 07:43:31;;;;;;;;;;;-0.70;95.30;;;;;;5065587;28;19936;-79
2022/01/13 07:45:58;;;;;;;;;;;-0.70;95.30;;;;;;5071843;28;19992;-76
2022/01/13 07:48:25;;;;;;;;;;;-0.70;95.30;;;;;;5064233;28;19933;-76
2022/01/13 07:50:52;;;;;;;;;;;-0.70;95.30;;;;;;5067061;28;19939;-77
2022/01/13 07:53:18;;;;;;;;;;;-0.70;95.30;;;;;;5067926;28;19935;-78
2022/01/13 07:55:45;;;;;;;;;;;-0.70;95.30;;;;;;5065949;28;20216;-77
2022/01/13 07:58:12;;;;;;;;;;;-0.70;95.30;;;;;;5064095;28;19932;-78
2022/01/13 08:00:38;;;;;;;;;;;-0.70;95.30;;;;;;5065621;28;19929;-78
2022/01/13 08:03:06;;;;;;;;;;;-0.70;95.30;;;;;;5066719;28;19933;-77
2022/01/13 08:05:33;;;;;;;;;;;-0.70;95.30;;;;;;5067013;28;19932;-77
2022/01/13 08:07:59;;;;;;;;;;;-0.70;95.30;;;;;;5066476;28;19925;-77
2022/01/13 08:10:26;;;;;;;;;;;-0.70;95.30;;;;;;5057895;28;19933;-77
2022/01/13 08:12:52;;;;;;;;;;;-0.70;95.30;;;;;;5064449;28;19932;-77
2022/01/13 08:15:19;;;;;;;;;;;-0.70;95.30;;;;;;5067083;28;19929;-77
2022/01/13 08:20:34;;;;;;;;;;;-0.70;95.30;;;;;;5066481;28;20010;-77
2022/01/13 08:23:03;;;;;;;;;;;-0.70;95.30;;;;;;5063777;28;21133;-77
2022/01/13 08:25:30;;;;;;;;;;;-0.70;95.30;;;;;;5074645;28;19936;-76
2022/01/13 08:27:57;;;;;;;;;;;-0.70;95.30;;;;;;5075264;28;19931;-77
2022/01/13 08:30:24;;;;;;;;;;;-0.70;95.40;;;;;;5076611;28;20031;-76
2022/01/13 08:32:51;;;;;;;;;;;-0.70;95.40;;;;;;5074322;28;19925;-75
2022/01/13 08:35:17;;;;;;;;;;;-0.70;95.40;;;;;;5076505;28;19928;-76
2022/01/13 08:37:45;;;;;;;;;;;-0.70;95.40;;;;;;5068772;28;19951;-77
2022/01/13 08:40:13;;;;;;;;;;;-0.70;95.40;;;;;;5060503;28;19932;-78
2022/01/13 08:42:40;;;;;;;;;;;-0.70;95.50;;;;;;5063232;28;19932;-77
2022/01/13 08:45:08;;;;;;;;;;;-0.70;95.50;;;;;;5066572;28;19928;-78
2022/01/13 08:47:34;;;;;;;;;;;-0.70;95.50;;;;;;5059783;28;19928;-79
2022/01/13 08:50:01;;;;;;;;;;;-0.70;95.60;;;;;;5067113;28;19932;-78
2022/01/13 08:52:27;;;;;;;;;;;-0.70;95.50;;;;;;5062367;28;19928;-77
2022/01/13 08:54:56;;;;;;;;;;;-0.70;95.50;;;;;;5066414;28;20518;-78
2022/01/13 08:57:23;;;;;;;;;;;-0.70;95.50;;;;;;5064174;28;20043;-78
2022/01/13 08:59:50;;;;;;;;;;;-0.70;95.50;;;;;;5066756;28;20308;-79
2022/01/13 09:02:17;;;;;;;;;;;-0.70;95.50;;;;;;5062696;28;20297;-78
2022/01/13 09:04:43;;;;;;;;;;;-0.70;95.50;;;;;;5067061;28;19940;-78
2022/01/13 09:07:10;;;;;;;;;;;-0.70;95.50;;;;;;5064436;28;19932;-77
2022/01/13 09:09:36;;;;;;;;;;;-0.70;95.50;;;;;;5063469;28;19932;-78
2022/01/13 09:12:05;;;;;;;;;;;-0.70;95.50;;;;;;5060477;28;19951;-78
2022/01/13 09:14:32;;;;;;;;;;;-0.70;95.50;;;;;;5064663;28;19929;-78
2022/01/13 09:17:00;;;;;;;;;;;-0.70;95.50;;;;;;5060636;28;19958;-77
2022/01/13 09:19:27;;;;;;;;;;;-0.70;95.60;;;;;;5066383;28;19929;-77
2022/01/13 09:21:55;;;;;;;;;;;-0.70;95.50;;;;;;5065326;28;20373;-78
2022/01/13 09:24:22;;;;;;;;;;;-0.70;95.60;;;;;;5065102;28;19928;-78
2022/01/13 09:26:48;;;;;;;;;;;-0.70;95.50;;;;;;5063908;28;20011;-78
2022/01/13 09:29:17;;;;;;;;;;;-0.70;95.50;;;;;;5063025;28;20471;-78
2022/01/13 09:31:44;;;;;;;;;;;-0.70;95.50;;;;;;5061338;28;20459;-79
2022/01/13 09:34:11;;;;;;;;;;;-0.70;95.60;;;;;;5059339;28;19928;-78
2022/01/13 09:36:38;;;;;;;;;;;-0.70;95.60;;;;;;5062631;28;19932;-78
2022/01/13 09:39:06;;;;;;;;;;;-0.70;95.60;;;;;;5061723;28;19928;-77
2022/01/13 09:41:33;;;;;;;;;;;-0.70;95.60;;;;;;5060538;28;19956;-78
2022/01/13 09:44:00;;;;;;;;;;;-0.70;95.60;;;;;;5065334;28;19928;-78
2022/01/13 09:46:28;;;;;;;;;;;-0.70;95.60;;;;;;5062521;28;20435;-78
2022/01/13 09:48:55;;;;;;;;;;;-0.70;95.60;;;;;;5065135;28;20573;-77
2022/01/13 09:51:23;;;;;;;;;;;-0.70;95.60;;;;;;5064494;28;19936;-77
2022/01/13 09:53:50;;;;;;;;;;;-0.70;95.60;;;;;;5066221;28;19928;-78
2022/01/13 09:56:16;;;;;;;;;;;-0.70;95.70;;;;;;5065258;28;19929;-77
2022/01/13 09:58:44;;;;;;;;;;;-0.70;95.70;;;;;;5065430;28;19932;-79
2022/01/13 10:01:10;;;;;;;;;;;-0.70;95.70;;;;;;5062627;28;19928;-77
2022/01/13 10:03:38;;;;;;;;;;;-0.60;95.70;;;;;;5062750;28;19932;-77
2022/01/13 10:06:09;;;;;;;;;;;-0.70;95.70;;;;;;5064428;28;19959;-78
2022/01/13 10:08:43;;;;;;;;;;;-0.60;95.70;;;;;;5067295;28;19943;-77
2022/01/13 10:11:36;;;;;;;;;;;-0.60;95.80;;;;;;5068915;28;19939;-78
2022/01/13 10:14:09;;;;;;;;;;;-0.60;95.80;;;;;;5071808;28;20015;-78
2022/01/13 10:16:41;;;;;;;;;;;-0.60;95.80;;;;;;5067718;28;19932;-78
2022/01/13 10:19:10;;;;;;;;;;;-0.50;95.80;;;;;;5071951;28;20360;-78
2022/01/13 10:21:36;;;;;;;;;;;-0.50;95.80;;;;;;5070725;28;19935;-78
2022/01/13 10:24:06;;;;;;;;;;;-0.50;95.70;;;;;;5071690;28;19936;-77
2022/01/13 10:26:34;;;;;;;;;;;-0.50;95.70;;;;;;5072118;28;19929;-77
2022/01/13 10:29:01;;;;;;;;;;;-0.50;95.70;;;;;;5070963;28;19950;-78
2022/01/13 10:31:43;;;;;;;;;;;-0.50;95.60;;;;;;5070261;28;19932;-78
2022/01/13 10:34:17;;;;;;;;;;;-0.50;95.70;;;;;;5073297;28;19929;-76
2022/01/13 10:36:58;;;;;;;;;;;-0.50;95.70;;;;;;5068466;28;19939;-77
2022/01/13 10:39:43;;;;;;;;;;;-0.40;95.70;;;;;;5069239;28;19932;-77
2022/01/13 10:42:30;;;;;;;;;;;-0.40;95.80;;;;;;5067499;28;20392;-77
2022/01/13 10:44:57;;;;;;;;;;;-0.30;95.80;;;;;;5071044;28;20597;-78
2022/01/13 10:47:23;;;;;;;;;;;-0.30;95.80;;;;;;5070873;28;19936;-77
2022/01/13 10:49:51;;;;;;;;;;;-0.30;95.70;;;;;;5063854;28;19928;-77
2022/01/13 10:52:23;;;;;;;;;;;-0.20;95.70;;;;;;5065738;28;19928;-77
2022/01/13 10:54:51;;;;;;;;;;;-0.10;95.60;;;;;;5069177;28;19932;-77
2022/01/13 10:57:19;;;;;;;;;;;0.00;95.50;;;;;;5061697;28;19929;-77
2022/01/13 10:59:46;;;;;;;;;;;0.00;95.30;;;;;;5067436;28;19936;-79
2022/01/13 11:02:12;;;;;;;;;;;0.10;95.20;;;;;;5066351;28;19932;-77
2022/01/13 11:04:39;;;;;;;;;;;0.20;95.10;;;;;;5070260;28;19928;-78
2022/01/13 11:07:17;;;;;;;;;;;0.20;94.90;;;;;;5065318;28;19935;-77
2022/01/13 11:09:51;;;;;;;;;;;0.30;94.80;;;;;;5060276;28;19935;-77
2022/01/13 11:12:18;;;;;;;;;;;0.40;94.70;;;;;;5060610;28;19940;-77
2022/01/13 11:14:46;;;;;;;;;;;0.40;94.60;;;;;;5065408;28;19932;-77
2022/01/13 11:17:14;;;;;;;;;;;0.50;94.50;;;;;;5064010;28;19935;-77
2022/01/13 11:19:44;;;;;;;;;;;0.50;94.40;;;;;;5063174;28;19951;-77
2022/01/13 11:22:12;;;;;;;;;;;0.50;94.40;;;;;;5062387;28;19935;-77
2022/01/13 11:24:40;;;;;;;;;;;0.60;94.40;;;;;;5060475;28;19939;-77
2022/01/13 11:27:07;;;;;;;;;;;0.50;94.30;;;;;;5060518;28;19962;-77
2022/01/13 11:29:34;;;;;;;;;;;0.60;94.40;;;;;;5061065;28;19951;-77
2022/01/13 11:32:02;;;;;;;;;;;0.60;94.40;;;;;;5061617;28;19928;-77
2022/01/13 11:34:28;;;;;;;;;;;0.60;94.40;;;;;;5066039;28;19935;-77
2022/01/13 11:36:55;;;;;;;;;;;0.60;94.40;;;;;;5059741;28;20641;-75
2022/01/13 11:39:35;;;;;;;;;;;0.70;94.40;;;;;;5059852;28;19974;-77
2022/01/13 11:42:04;;;;;;;;;;;0.60;94.40;;;;;;5059174;28;19928;-77
2022/01/13 11:44:30;;;;;;;;;;;0.60;94.50;;;;;;5053903;28;19933;-75
2022/01/13 11:46:57;;;;;;;;;;;0.60;94.50;;;;;;5056045;28;20153;-77
2022/01/13 11:49:37;;;;;;;;;;;0.60;94.60;;;;;;5055931;28;19932;-77
2022/01/13 11:52:13;;;;;;;;;;;0.60;94.60;;;;;;5060921;28;19974;-77
2022/01/13 11:54:40;;;;;;;;;;;0.70;94.70;;;;;;5058530;28;19929;-77
2022/01/13 11:57:13;;;;;;;;;;;0.70;94.80;;;;;;5057638;28;19936;-75
2022/01/13 11:59:40;;;;;;;;;;;0.70;94.80;;;;;;5060912;28;20442;-76
2022/01/13 12:02:24;;;;;;;;;;;0.70;94.80;;;;;;5056226;28;19940;-76
2022/01/13 12:05:00;;;;;;;;;;;0.70;94.80;;;;;;5055673;28;19936;-76
2022/01/13 12:07:37;;;;;;;;;;;0.80;94.80;;;;;;5056805;28;19939;-76
2022/01/13 12:10:04;;;;;;;;;;;0.80;94.90;;;;;;5062408;28;19928;-78
2022/01/13 12:12:33;;;;;;;;;;;0.80;94.90;;;;;;5057913;28;19940;-75
2022/01/13 12:15:16;;;;;;;;;;;0.90;95.00;;;;;;5056738;28;20576;-75
2022/01/13 12:17:46;;;;;;;;;;;0.90;95.00;;;;;;5056573;28;21200;-78
2022/01/13 12:20:23;;;;;;;;;;;0.90;95.00;;;;;;5062503;28;20449;-77
2022/01/13 12:23:14;;;;;;;;;;;0.90;95.00;;;;;;5060112;28;19930;-75
2022/01/13 12:25:38;;;;;;;;;;;1.00;95.00;;;;;;5061601;28;19967;-77
2022/01/13 12:28:13;;;;;;;;;;;1.00;95.00;;;;;;5061460;28;19936;-77
2022/01/13 12:30:40;;;;;;;;;;;1.10;94.90;;;;;;5060108;28;19940;-77
2022/01/13 12:33:08;;;;;;;;;;;1.10;94.90;;;;;;5062043;28;19935;-76
2022/01/13 12:35:43;;;;;;;;;;;1.20;94.90;;;;;;5062344;28;19934;-76
2022/01/13 12:38:12;;;;;;;;;;;1.20;94.80;;;;;;5063464;28;19928;-77
2022/01/13 12:40:43;;;;;;;;;;;1.30;94.60;;;;;;5060874;28;19928;-77
2022/01/13 12:43:21;;;;;;;;;;;1.40;94.60;;;;;;5059618;28;19928;-77
2022/01/13 12:45:48;;;;;;;;;;;1.40;94.50;;;;;;5056016;28;19928;-77
2022/01/13 12:48:14;;;;;;;;;;;1.50;94.40;;;;;;5057958;28;19936;-77
2022/01/13 12:50:42;;;;;;;;;;;1.60;94.30;;;;;;5059891;28;19929;-77
2022/01/13 12:53:19;;;;;;;;;;;1.60;94.20;;;;;;5063980;28;19929;-78
2022/01/13 12:55:53;;;;;;;;;;;1.70;94.10;;;;;;5060091;28;19974;-77
2022/01/13 12:58:21;;;;;;;;;;;1.70;94.00;;;;;;5060003;28;20325;-78
2022/01/13 13:00:48;;;;;;;;;;;1.70;94.00;;;;;;5061996;28;19929;-77
2022/01/13 13:03:15;;;;;;;;;;;1.80;94.00;;;;;;5057861;28;19978;-77
2022/01/13 13:05:44;;;;;;;;;;;1.80;94.00;;;;;;5064446;28;19940;-77
2022/01/13 13:08:12;;;;;;;;;;;1.90;94.10;;;;;;5064278;28;20514;-77
2022/01/13 13:10:41;;;;;;;;;;;1.90;94.00;;;;;;5064050;28;20439;-78
2022/01/13 13:13:08;;;;;;;;;;;1.90;93.90;;;;;;5064741;28;20286;-78
2022/01/13 13:15:42;;;;;;;;;;;1.90;93.90;;;;;;5061961;28;19936;-76
2022/01/13 13:18:17;;;;;;;;;;;2.00;93.90;;;;;;5065227;28;19928;-78
2022/01/13 13:20:44;;;;;;;;;;;2.00;93.90;;;;;;5060961;28;19928;-77
2022/01/13 13:23:11;;;;;;;;;;;2.00;93.80;;;;;;5069653;28;20031;-78
2022/01/13 13:25:39;;;;;;;;;;;2.00;93.80;;;;;;5066094;28;19939;-77
2022/01/13 13:28:23;;;;;;;;;;;2.10;93.80;;;;;;5072003;28;19935;-77
2022/01/13 13:30:52;;;;;;;;;;;2.10;93.80;;;;;;5054687;28;20039;-77
2022/01/13 13:33:18;;;;;;;;;;;2.20;94.50;;;;;;5060917;28;19935;-77
2022/01/13 13:35:45;;;;;;;;;;;2.40;94.90;;;;;;5069013;28;20313;-77
2022/01/13 13:38:12;;;;;;;;;;;2.60;94.70;;;;;;5064507;28;20015;-77
2022/01/13 13:40:45;;;;;;;;;;;2.70;94.40;;;;;;5061189;28;19929;-77
2022/01/13 13:43:12;;;;;;;;;;;2.90;94.20;;;;;;5064049;28;19935;-77
2022/01/13 13:45:39;;;;;;;;;;;3.10;94.00;;;;;;5056779;28;19932;-77
2022/01/13 13:48:07;;;;;;;;;;;3.20;93.70;;;;;;5061916;28;19929;-77
2022/01/13 13:50:34;;;;;;;;;;;3.40;93.50;;;;;;5063147;28;19928;-78
2022/01/13 13:53:07;;;;;;;;;;;3.50;93.20;;;;;;5062061;28;20492;-77
2022/01/13 13:58:20;;;;;;;;;;;3.70;92.80;;;;;;5064890;28;19962;-78
2022/01/13 14:00:46;;;;;;;;;;;3.90;92.50;;;;;;5066510;28;19928;-78
2022/01/13 14:03:21;;;;;;;;;;;4.00;92.30;;;;;;5063839;28;19929;-78
2022/01/13 14:05:48;;;;;;;;;;;4.10;92.10;;;;;;5066964;28;19932;-77
2022/01/13 14:08:14;;;;;;;;;;;4.20;92.00;;;;;;5069017;28;19936;-77
2022/01/13 14:10:41;;;;;;;;;;;4.30;91.80;;;;;;5067778;28;19932;-78
2022/01/13 14:13:08;;;;;;;;;;;4.40;91.60;;;;;;5064576;28;19933;-77
2022/01/13 14:15:36;;;;;;;;;;;4.40;91.40;;;;;;5067069;28;19935;-77
2022/01/13 14:18:11;;;;;;;;;;;4.50;91.30;;;;;;5064682;28;19929;-77
2022/01/13 14:20:40;;;;;;;;;;;4.60;91.20;;;;;;5067065;28;19936;-77
2022/01/13 14:23:07;;;;;;;;;;;4.70;91.00;;;;;;5068516;28;20016;-76
2022/01/13 14:25:34;;;;;;;;;;;4.70;90.90;;;;;;5067930;28;19928;-77
2022/01/13 14:28:02;;;;;;;;;;;4.80;90.70;;;;;;5066286;28;19933;-78
2022/01/13 14:30:29;;;;;;;;;;;4.80;90.60;;;;;;5065524;28;19929;-78
2022/01/13 14:33:12;;;;;;;;;;;4.90;90.50;;;;;;5057272;28;19935;-77
2022/01/13 14:35:40;;;;;;;;;;;4.90;90.50;;;;;;5061153;28;19940;-79
2022/01/13 14:38:09;;;;;;;;;;;4.90;90.50;;;;;;5061435;28;19979;-78
2022/01/13 14:40:42;;;;;;;;;;;4.90;90.60;;;;;;5063032;28;19928;-78
2022/01/13 14:43:17;;;;;;;;;;;4.80;90.60;;;;;;5060869;28;19932;-78